Huvudsida
METAR-TAF:

METAR-TAF

Flygplatser :

Dubrovniks flygplats

Dubrovnik, Kroatien

latitud: 42-34N, longitud: 018-16E, höjd: 157 m

Aktuellt väderrapport

Denna rapport gjordes för 44 minuter sedan, klockan 21:30 UTC
Vind 9 kt från nord/nordost, varierande mellan väst/nordväst och ost
Temperatur 12°C
Fuktighet 54%
Tryck 1010 hPa
Sikt 10 km eller mer
Inga moln under 1 500 m eller inga cumulonimbus

METAR: LDDU 142130Z 02009KT 300V100 CAVOK 12/03 Q1010

Tid: 23:14 (22:14 UTC)

Väderprognos

Denna rapport gjordes för 4 timmar och 49 minuter sedan, klockan 17:25 UTC
Prognos gäller från 14 kl. 18 UTC till 15 kl. 18 UTC
Vind 9 kt från nord/nordost
Sikt 10 km eller mer
Inga moln under 1 500 m eller inga cumulonimbus
Blir
från 14 kl. 21 UTC till 14 kl. 23 UTC
Vind 7 kt från ost
Sannolikhet 30% :
Temporärt
från 15 kl. 00 UTC till 15 kl. 06 UTC
Sikt: 2000 m
Delvis täcks av dimma

TAF: LDDU 141725Z 1418/1518 02009KT CAVOK TX16/1512Z TN07/1503Z BECMG 1421/1423 09007KT PROB30 TEMPO 1500/1506 2000 PRFG

Aktuella väderrapporter och prognoser från 4000 flygplatser (METAR- och TAF-rapporter).

De tillgängliga stationerna syns som gula och röda prickar på kartan.

För musen över prickarna för att se namnen på stationerna.

Klicka sedan för att få väderrapporter och prognoser.

För att ändra kartan: Klicka på de gröna knapparna med ett svart kors på för att zooma in; den gröna knappen med ett streck på för att zooma ut; eller på de gröna pilarna för angränsande kartor.


METAR-TAF: